Time;durP1;ratioP1;P1;durP2;ratioP2;P2;SDS_P1;SDS_P2;PMS_P1;PMS_P2;Temp;Humidity;BMP_temperature;BMP_pressure;BME280_temperature;BME280_humidity;BME280_pressure;Samples;Min_cycle;Max_cycle;Signal;HPM_P1;HPM_P2
2023/03/17 00:00:33;;;;;;;6.00;3.13;;;;;;;;;;5050700;28;20048;-61
2023/03/17 00:03:00;;;;;;;6.43;3.60;;;;;;;;;;5050054;28;20048;-60
2023/03/17 00:05:29;;;;;;;5.70;2.93;;;;;;;;;;5049565;28;20052;-60
2023/03/17 00:07:59;;;;;;;4.40;2.43;;;;;;;;;;5050420;28;20047;-60
2023/03/17 00:10:26;;;;;;;7.30;3.20;;;;;;;;;;5050031;28;20127;-60
2023/03/17 00:12:54;;;;;;;7.80;3.20;;;;;;;;;;5050522;28;20049;-60
2023/03/17 00:15:21;;;;;;;6.47;3.73;;;;;;;;;;5050430;28;20414;-60
2023/03/17 00:17:47;;;;;;;6.40;2.90;;;;;;;;;;5049851;28;20049;-60
2023/03/17 00:20:18;;;;;;;5.27;3.30;;;;;;;;;;5050651;28;20041;-60
2023/03/17 00:22:44;;;;;;;7.47;3.10;;;;;;;;;;5050018;28;20045;-61
2023/03/17 00:25:21;;;;;;;5.93;2.60;;;;;;;;;;5050227;28;20056;-60
2023/03/17 00:27:48;;;;;;;7.77;3.87;;;;;;;;;;5050786;28;20128;-60
2023/03/17 00:30:14;;;;;;;6.90;3.03;;;;;;;;;;5049349;28;20080;-60
2023/03/17 00:32:40;;;;;;;5.30;2.60;;;;;;;;;;5049288;28;20055;-61
2023/03/17 00:35:14;;;;;;;8.07;4.20;;;;;;;;;;5049867;28;20522;-60
2023/03/17 00:37:40;;;;;;;5.07;3.10;;;;;;;;;;5050659;28;20403;-60
2023/03/17 00:40:14;;;;;;;6.37;2.53;;;;;;;;;;5050417;28;20129;-60
2023/03/17 00:42:40;;;;;;;6.10;3.03;;;;;;;;;;5049759;28;20484;-60
2023/03/17 00:45:07;;;;;;;5.63;3.00;;;;;;;;;;5050692;28;20126;-60
2023/03/17 00:47:33;;;;;;;6.33;3.30;;;;;;;;;;5050289;28;20045;-60
2023/03/17 00:49:59;;;;;;;6.73;3.20;;;;;;;;;;5050182;28;20600;-61
2023/03/17 00:52:25;;;;;;;7.73;3.47;;;;;;;;;;5050604;28;20132;-60
2023/03/17 00:54:51;;;;;;;4.80;2.90;;;;;;;;;;5049090;28;20087;-60
2023/03/17 00:57:18;;;;;;;4.80;3.53;;;;;;;;;;5048777;28;20426;-60
2023/03/17 00:59:44;;;;;;;8.47;3.37;;;;;;;;;;5049684;28;20049;-60
2023/03/17 01:02:13;;;;;;;7.40;3.37;;;;;;;;;;5050288;28;20423;-60
2023/03/17 01:04:40;;;;;;;6.37;3.20;;;;;;;;;;5049649;28;20521;-60
2023/03/17 01:07:06;;;;;;;5.00;3.10;;;;;;;;;;5050041;28;20052;-60
2023/03/17 01:09:32;;;;;;;7.50;3.20;;;;;;;;;;5050128;28;20045;-60
2023/03/17 01:11:59;;;;;;;5.40;3.03;;;;;;;;;;5049950;28;20136;-60
2023/03/17 01:14:25;;;;;;;6.17;3.20;;;;;;;;;;5049754;28;20529;-60
2023/03/17 01:16:54;;;;;;;5.27;3.37;;;;;;;;;;5049954;28;20051;-60
2023/03/17 01:19:21;;;;;;;6.50;3.30;;;;;;;;;;5049597;28;20457;-60
2023/03/17 01:21:47;;;;;;;7.73;3.37;;;;;;;;;;5049576;28;20068;-60
2023/03/17 01:24:13;;;;;;;7.80;3.23;;;;;;;;;;5049906;28;20430;-61
2023/03/17 01:26:39;;;;;;;7.37;3.07;;;;;;;;;;5049426;28;20123;-61
2023/03/17 01:29:06;;;;;;;4.67;2.90;;;;;;;;;;5049195;28;20148;-61
2023/03/17 01:31:32;;;;;;;5.57;3.07;;;;;;;;;;5048407;28;20045;-61
2023/03/17 01:33:59;;;;;;;5.87;3.13;;;;;;;;;;5049915;28;20052;-61
2023/03/17 01:36:25;;;;;;;8.07;3.50;;;;;;;;;;5049864;28;20454;-61
2023/03/17 01:38:51;;;;;;;5.90;3.47;;;;;;;;;;5048651;28;20048;-61
2023/03/17 01:41:19;;;;;;;7.10;3.83;;;;;;;;;;5049603;28;20098;-60
2023/03/17 01:43:45;;;;;;;5.73;3.60;;;;;;;;;;5049812;28;20037;-61
2023/03/17 01:46:20;;;;;;;6.53;3.10;;;;;;;;;;5048868;28;20047;-61
2023/03/17 01:48:51;;;;;;;6.70;3.60;;;;;;;;;;5049538;28;20052;-61
2023/03/17 01:51:24;;;;;;;5.73;3.30;;;;;;;;;;5049164;28;20121;-61
2023/03/17 01:53:52;;;;;;;4.85;2.85;;;;;;;;;;5049480;28;20084;-61
2023/03/17 01:56:18;;;;;;;6.87;3.47;;;;;;;;;;5048744;28;20119;-61
2023/03/17 01:58:47;;;;;;;5.80;3.80;;;;;;;;;;5048913;28;20411;-61
2023/03/17 02:01:13;;;;;;;7.30;3.30;;;;;;;;;;5049157;28;20617;-61
2023/03/17 02:03:40;;;;;;;8.70;3.60;;;;;;;;;;5048908;28;20146;-60
2023/03/17 02:06:08;;;;;;;5.97;4.07;;;;;;;;;;5049212;28;20048;-61
2023/03/17 02:08:34;;;;;;;9.33;3.97;;;;;;;;;;5048704;28;20056;-61
2023/03/17 02:11:02;;;;;;;6.80;3.93;;;;;;;;;;5048978;28;20396;-60
2023/03/17 02:13:28;;;;;;;6.90;3.40;;;;;;;;;;5048959;28;20056;-60
2023/03/17 02:15:55;;;;;;;6.97;3.83;;;;;;;;;;5049249;28;20056;-59
2023/03/17 02:18:22;;;;;;;5.17;3.10;;;;;;;;;;5048494;28;20102;-60
2023/03/17 02:20:48;;;;;;;5.63;3.40;;;;;;;;;;5046876;28;20171;-61
2023/03/17 02:23:16;;;;;;;8.77;3.70;;;;;;;;;;5049158;28;20123;-61
2023/03/17 02:25:44;;;;;;;6.17;3.47;;;;;;;;;;5048881;28;20511;-61
2023/03/17 02:28:12;;;;;;;6.90;4.10;;;;;;;;;;5048150;28;20053;-61
2023/03/17 02:30:39;;;;;;;6.53;2.93;;;;;;;;;;5048915;28;20060;-61
2023/03/17 02:33:05;;;;;;;7.87;3.40;;;;;;;;;;5048959;28;20531;-61
2023/03/17 02:35:31;;;;;;;7.43;3.50;;;;;;;;;;5048515;28;20048;-61
2023/03/17 02:37:57;;;;;;;5.87;3.20;;;;;;;;;;5049228;28;20380;-60
2023/03/17 02:40:23;;;;;;;6.80;3.20;;;;;;;;;;5048617;28;20053;-61
2023/03/17 02:42:50;;;;;;;6.70;3.47;;;;;;;;;;5049100;28;20045;-61
2023/03/17 02:45:16;;;;;;;6.67;3.20;;;;;;;;;;5048814;28;20044;-61
2023/03/17 02:47:42;;;;;;;8.47;4.30;;;;;;;;;;5048424;28;20457;-61
2023/03/17 02:50:11;;;;;;;6.60;3.80;;;;;;;;;;5048821;28;20554;-61
2023/03/17 02:52:37;;;;;;;5.37;3.10;;;;;;;;;;5048654;28;20037;-61
2023/03/17 02:55:04;;;;;;;7.80;3.70;;;;;;;;;;5048293;28;20052;-61
2023/03/17 02:57:30;;;;;;;6.67;3.40;;;;;;;;;;5048482;28;20057;-61
2023/03/17 02:59:56;;;;;;;6.90;3.40;;;;;;;;;;5046615;28;20052;-62
2023/03/17 03:02:22;;;;;;;5.80;3.27;;;;;;;;;;5048673;28;20045;-61
2023/03/17 03:04:49;;;;;;;6.57;3.23;;;;;;;;;;5047172;28;20514;-61
2023/03/17 03:07:15;;;;;;;7.37;3.37;;;;;;;;;;5048227;28;20605;-61
2023/03/17 03:09:41;;;;;;;8.07;3.83;;;;;;;;;;5048412;28;20084;-61
2023/03/17 03:12:08;;;;;;;7.40;3.20;;;;;;;;;;5048715;28;20134;-61
2023/03/17 03:14:35;;;;;;;5.90;3.30;;;;;;;;;;5048322;28;20049;-61
2023/03/17 03:17:01;;;;;;;5.87;3.60;;;;;;;;;;5048619;28;20049;-61
2023/03/17 03:19:27;;;;;;;9.90;3.70;;;;;;;;;;5048254;28;20438;-61
2023/03/17 03:21:53;;;;;;;7.03;3.33;;;;;;;;;;5050835;28;20037;-61
2023/03/17 03:24:19;;;;;;;12.97;3.93;;;;;;;;;;5051220;28;20494;-61
2023/03/17 03:26:45;;;;;;;5.77;3.53;;;;;;;;;;5051268;28;20049;-61
2023/03/17 03:29:11;;;;;;;6.73;3.40;;;;;;;;;;5051843;28;20049;-61
2023/03/17 03:31:37;;;;;;;6.60;3.27;;;;;;;;;;5052041;28;20045;-61
2023/03/17 03:34:03;;;;;;;7.80;3.30;;;;;;;;;;5050612;28;20056;-61
2023/03/17 03:36:29;;;;;;;9.17;3.40;;;;;;;;;;5050678;28;20049;-61
2023/03/17 03:38:56;;;;;;;5.53;3.07;;;;;;;;;;5051762;28;20045;-61
2023/03/17 03:41:22;;;;;;;7.60;3.47;;;;;;;;;;5051737;28;20133;-61
2023/03/17 03:43:48;;;;;;;5.97;3.13;;;;;;;;;;5052097;28;20120;-61
2023/03/17 03:46:15;;;;;;;8.03;3.53;;;;;;;;;;5051540;28;20045;-61
2023/03/17 03:48:41;;;;;;;7.13;3.47;;;;;;;;;;5050567;28;20057;-61
2023/03/17 03:51:07;;;;;;;7.53;3.63;;;;;;;;;;5051744;28;20041;-61
2023/03/17 03:53:33;;;;;;;6.27;3.03;;;;;;;;;;5051416;28;20056;-61
2023/03/17 03:55:59;;;;;;;5.70;3.33;;;;;;;;;;5051014;28;20080;-61
2023/03/17 03:58:25;;;;;;;6.63;3.03;;;;;;;;;;5051271;28;20036;-61
2023/03/17 04:00:51;;;;;;;9.00;3.53;;;;;;;;;;5050719;28;20136;-61
2023/03/17 04:03:17;;;;;;;4.67;3.13;;;;;;;;;;5051072;28;20155;-61
2023/03/17 04:05:43;;;;;;;6.37;3.23;;;;;;;;;;5050977;28;20513;-61
2023/03/17 04:08:10;;;;;;;9.27;3.67;;;;;;;;;;5051001;28;20076;-62
2023/03/17 04:10:36;;;;;;;8.00;3.80;;;;;;;;;;5049881;28;20120;-60
2023/03/17 04:13:02;;;;;;;9.97;3.43;;;;;;;;;;5050845;28;20052;-60
2023/03/17 04:15:28;;;;;;;8.07;3.93;;;;;;;;;;5051488;28;20049;-60
2023/03/17 04:17:54;;;;;;;7.13;3.63;;;;;;;;;;5051159;28;20055;-60
2023/03/17 04:20:20;;;;;;;7.37;4.00;;;;;;;;;;5050913;28;20127;-60
2023/03/17 04:22:46;;;;;;;9.53;3.93;;;;;;;;;;5051080;28;20037;-60
2023/03/17 04:25:13;;;;;;;4.90;2.93;;;;;;;;;;5051102;28;20045;-60
2023/03/17 04:27:41;;;;;;;8.27;3.40;;;;;;;;;;5050544;28;20570;-61
2023/03/17 04:30:07;;;;;;;5.87;3.50;;;;;;;;;;5050312;28;20055;-60
2023/03/17 04:32:33;;;;;;;7.03;3.80;;;;;;;;;;5050496;28;20072;-60
2023/03/17 04:34:59;;;;;;;6.20;3.87;;;;;;;;;;5050372;28;20071;-60
2023/03/17 04:37:26;;;;;;;10.80;4.07;;;;;;;;;;5050648;28;20499;-60
2023/03/17 04:39:52;;;;;;;7.90;3.63;;;;;;;;;;5050816;28;20496;-61
2023/03/17 04:42:18;;;;;;;8.03;3.50;;;;;;;;;;5050499;28;20857;-60
2023/03/17 04:44:44;;;;;;;7.23;3.47;;;;;;;;;;5050938;28;20073;-61
2023/03/17 04:47:10;;;;;;;7.80;3.63;;;;;;;;;;5050202;28;20080;-61
2023/03/17 04:49:36;;;;;;;5.77;3.30;;;;;;;;;;5050862;28;20044;-60
2023/03/17 04:52:03;;;;;;;9.70;3.63;;;;;;;;;;5049945;28;20041;-61
2023/03/17 04:54:29;;;;;;;7.00;3.87;;;;;;;;;;5050606;28;20178;-61
2023/03/17 04:56:55;;;;;;;9.67;3.20;;;;;;;;;;5050525;28;20045;-60
2023/03/17 04:59:21;;;;;;;7.47;3.33;;;;;;;;;;5049456;28;20049;-61
2023/03/17 05:01:47;;;;;;;6.17;3.50;;;;;;;;;;5050270;28;20118;-61
2023/03/17 05:04:13;;;;;;;7.50;3.30;;;;;;;;;;5050111;28;20494;-61
2023/03/17 05:06:39;;;;;;;5.23;3.50;;;;;;;;;;5050314;28;20041;-61
2023/03/17 05:09:05;;;;;;;7.20;3.20;;;;;;;;;;5049834;28;20131;-61
2023/03/17 05:11:31;;;;;;;8.10;3.30;;;;;;;;;;5049968;28;20071;-61
2023/03/17 05:13:57;;;;;;;8.70;3.50;;;;;;;;;;5048736;28;20041;-61
2023/03/17 05:16:23;;;;;;;8.37;4.00;;;;;;;;;;5037787;28;20060;-61
2023/03/17 05:18:50;;;;;;;7.70;3.63;;;;;;;;;;5049967;28;20041;-61
2023/03/17 05:21:16;;;;;;;5.83;3.07;;;;;;;;;;5049935;28;20728;-61
2023/03/17 05:23:42;;;;;;;7.17;3.33;;;;;;;;;;5049652;28;20044;-61
2023/03/17 05:26:09;;;;;;;5.70;3.40;;;;;;;;;;5049618;28;20060;-61
2023/03/17 05:28:35;;;;;;;9.37;3.33;;;;;;;;;;5049462;28;20474;-62
2023/03/17 05:31:02;;;;;;;9.33;3.77;;;;;;;;;;5048661;28;20048;-61
2023/03/17 05:33:28;;;;;;;9.50;4.23;;;;;;;;;;5047903;28;20049;-61
2023/03/17 05:35:54;;;;;;;7.63;3.50;;;;;;;;;;5049830;28;20415;-62
2023/03/17 05:38:21;;;;;;;6.97;3.77;;;;;;;;;;5049779;28;20045;-62
2023/03/17 05:40:49;;;;;;;7.80;4.13;;;;;;;;;;5047815;28;20045;-62
2023/03/17 05:43:15;;;;;;;7.57;3.20;;;;;;;;;;5049206;28;20127;-61
2023/03/17 05:45:41;;;;;;;6.63;3.43;;;;;;;;;;5049153;28;20526;-61
2023/03/17 05:48:07;;;;;;;8.70;3.53;;;;;;;;;;5049460;28;20053;-61
2023/03/17 05:50:33;;;;;;;9.30;3.40;;;;;;;;;;5049258;28;20048;-61
2023/03/17 05:52:59;;;;;;;8.67;3.70;;;;;;;;;;5049340;28;20067;-61
2023/03/17 05:55:26;;;;;;;8.43;4.77;;;;;;;;;;5047009;28;20415;-61
2023/03/17 05:57:52;;;;;;;6.90;3.80;;;;;;;;;;5049112;28;20040;-62
2023/03/17 06:00:20;;;;;;;7.83;3.73;;;;;;;;;;5048535;28;20045;-61
2023/03/17 06:02:46;;;;;;;6.17;3.80;;;;;;;;;;5049293;28;20056;-61
2023/03/17 06:05:12;;;;;;;8.40;3.50;;;;;;;;;;5048873;28;20057;-64
2023/03/17 06:07:38;;;;;;;6.30;3.17;;;;;;;;;;5048936;28;20094;-61
2023/03/17 06:10:05;;;;;;;10.70;3.83;;;;;;;;;;5049001;28;20044;-62
2023/03/17 06:12:32;;;;;;;6.07;3.33;;;;;;;;;;5048673;28;20068;-62
2023/03/17 06:14:58;;;;;;;6.70;3.40;;;;;;;;;;5048545;28;20522;-62
2023/03/17 06:17:24;;;;;;;6.50;3.57;;;;;;;;;;5048357;28;20530;-62
2023/03/17 06:19:50;;;;;;;11.80;3.87;;;;;;;;;;5049096;28;20565;-62
2023/03/17 06:22:16;;;;;;;8.00;3.67;;;;;;;;;;5048547;28;20057;-62
2023/03/17 06:24:42;;;;;;;6.37;3.17;;;;;;;;;;5047552;28;20533;-62
2023/03/17 06:27:09;;;;;;;6.87;3.63;;;;;;;;;;5048388;28;20049;-62
2023/03/17 06:29:36;;;;;;;9.70;4.50;;;;;;;;;;5039295;28;20045;-62
2023/03/17 06:32:03;;;;;;;7.33;3.10;;;;;;;;;;5038735;28;20155;-62
2023/03/17 06:34:29;;;;;;;7.27;3.40;;;;;;;;;;5035658;28;20041;-62
2023/03/17 06:36:56;;;;;;;7.67;3.87;;;;;;;;;;5039411;28;20376;-61
2023/03/17 06:39:22;;;;;;;8.10;5.17;;;;;;;;;;5042481;28;20040;-61
2023/03/17 06:41:48;;;;;;;7.37;3.70;;;;;;;;;;5041905;28;20052;-62
2023/03/17 06:44:14;;;;;;;6.27;3.03;;;;;;;;;;5041027;28;20478;-61
2023/03/17 06:46:41;;;;;;;8.57;3.93;;;;;;;;;;5038501;28;20049;-62
2023/03/17 06:49:07;;;;;;;8.60;3.50;;;;;;;;;;5041560;28;20041;-62
2023/03/17 06:51:36;;;;;;;5.63;3.23;;;;;;;;;;5033362;28;20057;-61
2023/03/17 06:54:02;;;;;;;6.63;3.63;;;;;;;;;;5038097;28;20695;-61
2023/03/17 06:56:28;;;;;;;7.03;3.20;;;;;;;;;;5047756;28;20041;-62
2023/03/17 06:58:54;;;;;;;6.57;3.43;;;;;;;;;;5057558;28;20566;-62
2023/03/17 07:01:21;;;;;;;6.17;3.20;;;;;;;;;;5042357;28;20042;-61
2023/03/17 07:03:47;;;;;;;5.80;3.70;;;;;;;;;;5042840;28;20482;-62
2023/03/17 07:06:13;;;;;;;6.87;3.63;;;;;;;;;;5041557;28;20052;-62
2023/03/17 07:08:40;;;;;;;7.13;3.90;;;;;;;;;;5041577;28;20048;-63
2023/03/17 07:11:06;;;;;;;8.47;3.40;;;;;;;;;;5043126;28;20050;-62
2023/03/17 07:13:34;;;;;;;7.07;3.47;;;;;;;;;;5041644;28;20127;-62
2023/03/17 07:16:01;;;;;;;6.47;3.47;;;;;;;;;;5043177;28;20060;-62
2023/03/17 07:18:30;;;;;;;8.93;4.13;;;;;;;;;;5042461;28;20500;-62
2023/03/17 07:20:57;;;;;;;6.63;3.17;;;;;;;;;;5040025;28;20069;-62
2023/03/17 07:23:23;;;;;;;8.17;4.50;;;;;;;;;;5040092;28;20052;-62
2023/03/17 07:25:49;;;;;;;5.47;3.33;;;;;;;;;;5041758;28;20033;-62
2023/03/17 07:28:15;;;;;;;5.67;3.40;;;;;;;;;;5040315;28;20072;-61
2023/03/17 07:30:45;;;;;;;7.07;3.20;;;;;;;;;;5048435;28;20045;-61
2023/03/17 07:33:12;;;;;;;8.43;3.60;;;;;;;;;;5042035;28;20072;-62
2023/03/17 07:35:38;;;;;;;6.13;3.00;;;;;;;;;;5041703;28;20630;-61
2023/03/17 07:38:04;;;;;;;6.43;3.60;;;;;;;;;;5039557;28;20083;-62
2023/03/17 07:40:30;;;;;;;6.20;3.70;;;;;;;;;;5039229;28;20040;-62
2023/03/17 07:42:57;;;;;;;5.93;3.40;;;;;;;;;;5041735;28;20155;-61
2023/03/17 07:45:23;;;;;;;8.43;3.40;;;;;;;;;;5046079;28;20094;-61
2023/03/17 07:47:50;;;;;;;5.50;3.00;;;;;;;;;;5044690;28;20086;-61
2023/03/17 07:50:17;;;;;;;5.63;3.33;;;;;;;;;;5045312;28;20041;-61
2023/03/17 07:52:43;;;;;;;6.80;2.97;;;;;;;;;;5044908;28;20410;-61
2023/03/17 07:55:11;;;;;;;4.63;2.90;;;;;;;;;;5045884;28;20118;-62
2023/03/17 07:57:37;;;;;;;6.10;3.20;;;;;;;;;;5035525;28;20045;-61
2023/03/17 08:00:08;;;;;;;9.43;3.27;;;;;;;;;;5032804;28;20120;-61
2023/03/17 08:02:34;;;;;;;5.00;3.00;;;;;;;;;;5045996;28;20037;-61
2023/03/17 08:05:01;;;;;;;6.80;3.30;;;;;;;;;;5054862;28;20499;-62
2023/03/17 08:07:28;;;;;;;5.90;3.50;;;;;;;;;;5038978;28;20041;-61
2023/03/17 08:09:54;;;;;;;5.37;2.90;;;;;;;;;;5038967;28;20419;-61
2023/03/17 08:12:20;;;;;;;5.50;3.13;;;;;;;;;;5034781;28;20052;-61
2023/03/17 08:14:46;;;;;;;7.93;3.23;;;;;;;;;;5043692;28;20045;-61
2023/03/17 08:17:12;;;;;;;5.70;2.93;;;;;;;;;;5041260;28;20037;-61
2023/03/17 08:19:39;;;;;;;4.97;2.63;;;;;;;;;;5041148;28;20481;-61
2023/03/17 08:22:06;;;;;;;6.33;2.83;;;;;;;;;;5040479;28;20522;-61
2023/03/17 08:24:32;;;;;;;5.43;3.03;;;;;;;;;;5038249;28;20650;-61
2023/03/17 08:26:58;;;;;;;5.03;2.90;;;;;;;;;;5042356;28;20045;-61
2023/03/17 08:29:24;;;;;;;7.17;3.77;;;;;;;;;;5044513;28;20511;-61
2023/03/17 08:31:50;;;;;;;8.17;4.47;;;;;;;;;;5043107;28;21864;-61
2023/03/17 08:34:16;;;;;;;5.80;2.80;;;;;;;;;;5043956;28;20043;-61
2023/03/17 08:36:42;;;;;;;5.07;2.90;;;;;;;;;;5040511;28;20053;-61
2023/03/17 08:39:09;;;;;;;7.17;2.80;;;;;;;;;;5040825;28;20049;-61
2023/03/17 08:41:36;;;;;;;5.07;2.80;;;;;;;;;;5041075;28;20135;-61
2023/03/17 08:44:02;;;;;;;4.77;2.97;;;;;;;;;;5042500;28;20045;-61
2023/03/17 08:46:32;;;;;;;6.40;2.63;;;;;;;;;;5038948;28;20052;-61
2023/03/17 08:48:59;;;;;;;7.27;3.17;;;;;;;;;;5037807;28;20048;-61
2023/03/17 08:51:27;;;;;;;6.37;2.93;;;;;;;;;;5039136;28;20505;-61
2023/03/17 08:53:55;;;;;;;6.43;2.83;;;;;;;;;;5040133;28;20088;-61
2023/03/17 08:56:21;;;;;;;6.13;3.10;;;;;;;;;;5038666;28;20127;-61
2023/03/17 08:58:48;;;;;;;6.40;2.83;;;;;;;;;;5038166;28;20756;-61
2023/03/17 09:01:14;;;;;;;5.97;3.00;;;;;;;;;;5037863;28;20705;-62
2023/03/17 09:03:41;;;;;;;5.80;2.77;;;;;;;;;;5039184;28;20491;-62
2023/03/17 09:06:10;;;;;;;5.43;3.20;;;;;;;;;;5039711;28;20037;-61
2023/03/17 09:08:38;;;;;;;7.17;2.90;;;;;;;;;;5037312;28;20052;-62
2023/03/17 09:11:05;;;;;;;6.10;2.70;;;;;;;;;;5039120;28;20613;-62
2023/03/17 09:13:32;;;;;;;4.57;2.63;;;;;;;;;;5036814;28;20080;-61
2023/03/17 09:15:58;;;;;;;5.93;2.93;;;;;;;;;;5039809;28;20175;-62
2023/03/17 09:18:25;;;;;;;6.17;3.37;;;;;;;;;;5037347;28;20080;-62
2023/03/17 09:20:51;;;;;;;4.63;2.73;;;;;;;;;;5037875;28;20053;-62
2023/03/17 09:23:17;;;;;;;5.27;2.57;;;;;;;;;;5039056;28;20044;-62
2023/03/17 09:25:43;;;;;;;6.20;3.07;;;;;;;;;;5035712;28;20045;-62
2023/03/17 09:28:12;;;;;;;6.53;2.77;;;;;;;;;;5032720;28;20198;-62
2023/03/17 09:30:42;;;;;;;5.23;2.77;;;;;;;;;;5034488;28;20059;-62
2023/03/17 09:33:14;;;;;;;5.47;2.77;;;;;;;;;;5032148;28;20396;-61
2023/03/17 09:35:40;;;;;;;7.00;2.80;;;;;;;;;;5034216;28;20511;-62
2023/03/17 09:38:07;;;;;;;4.80;2.77;;;;;;;;;;5034026;28;20045;-62
2023/03/17 09:40:36;;;;;;;4.40;2.70;;;;;;;;;;5038785;28;20041;-62
2023/03/17 09:43:08;;;;;;;7.37;3.23;;;;;;;;;;5036334;28;20466;-62
2023/03/17 09:45:38;;;;;;;5.93;3.20;;;;;;;;;;5042520;28;20045;-62
2023/03/17 09:48:10;;;;;;;4.67;2.70;;;;;;;;;;5039220;28;20106;-61
2023/03/17 09:50:46;;;;;;;7.27;2.93;;;;;;;;;;5039569;28;20048;-62
2023/03/17 09:53:16;;;;;;;5.33;2.97;;;;;;;;;;5043929;28;20041;-61
2023/03/17 09:55:43;;;;;;;5.80;2.67;;;;;;;;;;5044684;28;20049;-62
2023/03/17 09:58:10;;;;;;;7.03;3.27;;;;;;;;;;5046255;28;20099;-61
2023/03/17 10:00:36;;;;;;;7.40;3.10;;;;;;;;;;5043516;28;20049;-61
2023/03/17 10:03:02;;;;;;;4.50;2.90;;;;;;;;;;5034620;28;20033;-61
2023/03/17 10:05:30;;;;;;;5.00;2.97;;;;;;;;;;5040360;28;20041;-61
2023/03/17 10:08:01;;;;;;;4.70;2.80;;;;;;;;;;5040508;28;20112;-62
2023/03/17 10:10:27;;;;;;;4.33;2.90;;;;;;;;;;5036882;28;20049;-62
2023/03/17 10:13:02;;;;;;;5.43;2.87;;;;;;;;;;5037937;28;20037;-62
2023/03/17 10:15:35;;;;;;;5.57;2.67;;;;;;;;;;5035920;28;20050;-61
2023/03/17 10:18:02;;;;;;;4.95;2.92;;;;;;;;;;5035532;28;20045;-61
2023/03/17 10:20:29;;;;;;;5.27;3.03;;;;;;;;;;5033250;28;20041;-61
2023/03/17 10:23:02;;;;;;;5.40;3.27;;;;;;;;;;5029199;28;20049;-61
2023/03/17 10:25:30;;;;;;;4.55;3.20;;;;;;;;;;5028374;28;20395;-60
2023/03/17 10:28:15;;;;;;;7.50;3.70;;;;;;;;;;5029058;28;20115;-60
2023/03/17 10:30:42;;;;;;;7.93;2.73;;;;;;;;;;5028084;28;20503;-60
2023/03/17 10:33:09;;;;;;;5.57;3.80;;;;;;;;;;5037934;28;20049;-61
2023/03/17 10:35:38;;;;;;;6.83;3.77;;;;;;;;;;5048396;28;20052;-60
2023/03/17 10:38:30;;;;;;;4.87;3.00;;;;;;;;;;5048450;28;20439;-61
2023/03/17 10:40:58;;;;;;;7.50;3.30;;;;;;;;;;5048270;28;20073;-60
2023/03/17 10:43:28;;;;;;;8.27;3.27;;;;;;;;;;5048050;28;20056;-60
2023/03/17 10:45:59;;;;;;;4.23;2.93;;;;;;;;;;5040190;28;20045;-61
2023/03/17 10:48:25;;;;;;;6.17;3.47;;;;;;;;;;5028416;28;20041;-61
2023/03/17 10:50:52;;;;;;;6.10;3.50;;;;;;;;;;5028843;28;20120;-61
2023/03/17 10:53:26;;;;;;;7.80;3.27;;;;;;;;;;5028741;28;20034;-60
2023/03/17 10:55:54;;;;;;;6.07;3.43;;;;;;;;;;5028669;28;20049;-61
2023/03/17 10:58:32;;;;;;;8.07;3.90;;;;;;;;;;5028607;28;20053;-60
2023/03/17 11:01:02;;;;;;;10.87;3.30;;;;;;;;;;5028404;28;20049;-60
2023/03/17 11:03:32;;;;;;;6.97;3.33;;;;;;;;;;5028475;28;20037;-60
2023/03/17 11:05:58;;;;;;;6.13;2.83;;;;;;;;;;5028274;28;20475;-60
2023/03/17 11:08:24;;;;;;;7.53;4.07;;;;;;;;;;5027946;28;20705;-60
2023/03/17 11:10:55;;;;;;;6.87;3.40;;;;;;;;;;5030919;28;20435;-60
2023/03/17 11:13:27;;;;;;;6.63;3.33;;;;;;;;;;5037645;28;20053;-60
2023/03/17 11:15:57;;;;;;;5.93;3.73;;;;;;;;;;5040470;28;20041;-60
2023/03/17 11:18:28;;;;;;;7.40;4.07;;;;;;;;;;5036061;28;20060;-60
2023/03/17 11:20:56;;;;;;;4.60;3.33;;;;;;;;;;5041573;28;20124;-60
2023/03/17 11:23:27;;;;;;;4.70;2.90;;;;;;;;;;5037060;28;20059;-60
2023/03/17 11:25:59;;;;;;;7.20;3.40;;;;;;;;;;5036922;28;20049;-60
2023/03/17 11:28:29;;;;;;;6.77;3.00;;;;;;;;;;5038299;28;20818;-60
2023/03/17 11:31:14;;;;;;;6.30;3.93;;;;;;;;;;5036699;28;20049;-61
2023/03/17 11:33:45;;;;;;;5.13;3.17;;;;;;;;;;5045151;28;20526;-60
2023/03/17 11:36:17;;;;;;;7.57;3.63;;;;;;;;;;5038528;28;20114;-60
2023/03/17 11:39:10;;;;;;;10.50;4.80;;;;;;;;;;5036463;28;20053;-60
2023/03/17 11:41:40;;;;;;;6.60;3.47;;;;;;;;;;5042095;28;20054;-60
2023/03/17 11:44:25;;;;;;;6.77;3.90;;;;;;;;;;5040215;28;20291;-61
2023/03/17 11:47:11;;;;;;;4.90;3.33;;;;;;;;;;5045650;28;20397;-60
2023/03/17 11:49:38;;;;;;;8.10;3.70;;;;;;;;;;5025465;28;20494;-59
2023/03/17 11:52:09;;;;;;;7.33;3.43;;;;;;;;;;5048131;28;20041;-61
2023/03/17 11:54:35;;;;;;;7.87;4.53;;;;;;;;;;5050701;28;20394;-60
2023/03/17 11:57:04;;;;;;;5.37;3.60;;;;;;;;;;5051080;28;20426;-60
2023/03/17 11:59:50;;;;;;;7.70;3.60;;;;;;;;;;5039760;28;20044;-60
2023/03/17 12:02:17;;;;;;;5.97;4.20;;;;;;;;;;5043816;28;20578;-63
2023/03/17 12:04:56;;;;;;;9.37;4.40;;;;;;;;;;5043572;28;20057;-60
2023/03/17 12:07:35;;;;;;;7.47;4.30;;;;;;;;;;5040262;28;20046;-60
2023/03/17 12:10:07;;;;;;;6.40;3.90;;;;;;;;;;5041129;28;20045;-60
2023/03/17 12:12:37;;;;;;;8.03;4.27;;;;;;;;;;5039594;28;21179;-60
2023/03/17 12:15:05;;;;;;;5.87;3.83;;;;;;;;;;5040865;28;20049;-60
2023/03/17 12:17:35;;;;;;;9.40;4.73;;;;;;;;;;5042563;28;20042;-60
2023/03/17 12:20:05;;;;;;;6.30;4.07;;;;;;;;;;5041552;28;20531;-60
2023/03/17 12:22:34;;;;;;;8.43;3.90;;;;;;;;;;5041480;28;20859;-60
2023/03/17 12:25:08;;;;;;;7.80;3.70;;;;;;;;;;5041119;28;21455;-60
2023/03/17 12:27:43;;;;;;;10.87;4.30;;;;;;;;;;5039178;28;20060;-61
2023/03/17 12:30:19;;;;;;;6.10;3.87;;;;;;;;;;5039762;28;20047;-60
2023/03/17 12:32:52;;;;;;;6.73;4.23;;;;;;;;;;5038666;28;20870;-60
2023/03/17 12:35:25;;;;;;;6.35;4.18;;;;;;;;;;5041895;28;20797;-60
2023/03/17 12:37:51;;;;;;;7.47;4.40;;;;;;;;;;5041416;28;20163;-60
2023/03/17 12:40:22;;;;;;;8.03;4.33;;;;;;;;;;5042364;28;20037;-60
2023/03/17 12:42:52;;;;;;;6.90;3.83;;;;;;;;;;5040720;28;20045;-61
2023/03/17 12:45:21;;;;;;;8.63;4.63;;;;;;;;;;5038786;28;20041;-61
2023/03/17 12:47:51;;;;;;;11.13;4.13;;;;;;;;;;5040222;28;20050;-60
2023/03/17 12:50:29;;;;;;;9.27;4.53;;;;;;;;;;5038634;28;20499;-60
2023/03/17 12:52:58;;;;;;;7.53;4.53;;;;;;;;;;5041424;28;20448;-60
2023/03/17 12:55:26;;;;;;;8.80;4.50;;;;;;;;;;5045056;28;20061;-60
2023/03/17 12:58:02;;;;;;;11.63;4.83;;;;;;;;;;5037263;28;20045;-60
2023/03/17 13:00:30;;;;;;;6.47;4.20;;;;;;;;;;5036950;28;20045;-60
2023/03/17 13:03:26;;;;;;;7.20;4.13;;;;;;;;;;5039740;28;20042;-61
2023/03/17 13:05:54;;;;;;;9.90;4.30;;;;;;;;;;5041251;28;20051;-60
2023/03/17 13:08:27;;;;;;;7.43;4.90;;;;;;;;;;5035487;28;20045;-61
2023/03/17 13:11:13;;;;;;;6.50;4.97;;;;;;;;;;5042597;28;20127;-61
2023/03/17 13:13:54;;;;;;;8.37;4.57;;;;;;;;;;5044496;28;20311;-60
2023/03/17 13:16:32;;;;;;;6.37;4.77;;;;;;;;;;5038658;28;20054;-61
2023/03/17 13:19:19;;;;;;;7.17;4.90;;;;;;;;;;5041935;28;20044;-60
2023/03/17 13:21:48;;;;;;;8.13;4.57;;;;;;;;;;5038970;28;20092;-60
2023/03/17 13:24:17;;;;;;;8.20;4.40;;;;;;;;;;5039340;28;20041;-61
2023/03/17 13:26:53;;;;;;;8.30;4.00;;;;;;;;;;5039215;28;20115;-61
2023/03/17 13:29:24;;;;;;;7.77;4.50;;;;;;;;;;5042555;28;20040;-61
2023/03/17 13:31:50;;;;;;;7.73;4.63;;;;;;;;;;5034577;28;20068;-62
2023/03/17 13:34:17;;;;;;;10.03;4.73;;;;;;;;;;5037335;28;20399;-62
2023/03/17 13:36:44;;;;;;;7.23;4.70;;;;;;;;;;5041976;28;20183;-61
2023/03/17 13:39:31;;;;;;;8.80;4.70;;;;;;;;;;5041430;28;20056;-61
2023/03/17 13:42:15;;;;;;;6.70;4.67;;;;;;;;;;5042014;28;20053;-62
2023/03/17 13:44:46;;;;;;;8.80;4.43;;;;;;;;;;5041839;28;20083;-61
2023/03/17 13:47:24;;;;;;;7.23;4.23;;;;;;;;;;5041377;28;20099;-61
2023/03/17 13:49:52;;;;;;;9.00;4.67;;;;;;;;;;5038423;28;20038;-62
2023/03/17 13:52:39;;;;;;;7.07;4.50;;;;;;;;;;5033838;28;20060;-61
2023/03/17 13:55:17;;;;;;;9.50;4.47;;;;;;;;;;5041905;28;20049;-61
2023/03/17 13:57:52;;;;;;;6.77;4.40;;;;;;;;;;5040166;28;20492;-61
2023/03/17 14:00:23;;;;;;;8.87;4.50;;;;;;;;;;5039832;28;20049;-61
2023/03/17 14:02:49;;;;;;;6.37;4.20;;;;;;;;;;5032151;28;20184;-61
2023/03/17 14:05:20;;;;;;;8.40;4.37;;;;;;;;;;5047742;28;20167;-61
2023/03/17 14:07:50;;;;;;;9.47;4.93;;;;;;;;;;5048310;28;20041;-61
2023/03/17 14:10:19;;;;;;;6.43;4.77;;;;;;;;;;5047644;28;20068;-61
2023/03/17 14:12:45;;;;;;;8.50;5.30;;;;;;;;;;5043373;28;20511;-61
2023/03/17 14:15:24;;;;;;;7.00;4.87;;;;;;;;;;5045763;28;20040;-62
2023/03/17 14:17:51;;;;;;;7.70;4.97;;;;;;;;;;5038857;28;20032;-61
2023/03/17 14:20:18;;;;;;;8.50;4.60;;;;;;;;;;5037554;28;20396;-61
2023/03/17 14:22:48;;;;;;;8.17;4.80;;;;;;;;;;5036459;28;20518;-61
2023/03/17 14:25:18;;;;;;;10.03;4.93;;;;;;;;;;5038311;28;20041;-61
2023/03/17 14:27:47;;;;;;;8.80;4.70;;;;;;;;;;5038282;28;20107;-61
2023/03/17 14:30:18;;;;;;;7.33;4.50;;;;;;;;;;5038532;28;20049;-61
2023/03/17 14:32:59;;;;;;;8.87;5.30;;;;;;;;;;5031860;28;20075;-61
2023/03/17 14:35:28;;;;;;;8.23;4.60;;;;;;;;;;5028673;28;20056;-61
2023/03/17 14:37:54;;;;;;;9.53;5.40;;;;;;;;;;5028772;28;20051;-61
2023/03/17 14:40:22;;;;;;;11.03;4.53;;;;;;;;;;5028105;28;20049;-61
2023/03/17 14:42:48;;;;;;;5.67;4.30;;;;;;;;;;5028694;28;20041;-62
2023/03/17 14:45:20;;;;;;;9.97;5.00;;;;;;;;;;5028535;28;20049;-61
2023/03/17 14:47:46;;;;;;;9.57;5.30;;;;;;;;;;5043658;28;21167;-61
2023/03/17 14:50:17;;;;;;;9.57;5.00;;;;;;;;;;5028495;28;20056;-61